createdAt,value
2022-10-01T00:23:54.816Z,10
2022-10-01T00:52:59.325Z,10
2022-10-01T01:21:44.530Z,10
2022-10-01T01:50:35.999Z,8
2022-10-01T02:19:39.658Z,8
2022-10-01T02:48:34.288Z,7
2022-10-01T03:17:34.238Z,7
2022-10-01T03:45:55.907Z,6
2022-10-01T04:14:17.010Z,6
2022-10-01T04:42:39.606Z,5
2022-10-01T05:11:25.312Z,5
2022-10-01T05:40:18.834Z,5
2022-10-01T06:09:13.581Z,5
2022-10-01T06:38:13.057Z,4
2022-10-01T07:07:13.147Z,4
2022-10-01T07:36:12.109Z,4
2022-10-01T08:05:09.730Z,5
2022-10-01T08:34:10.280Z,5
2022-10-01T09:03:09.073Z,6
2022-10-01T09:31:27.536Z,4
2022-10-01T09:59:50.240Z,4
2022-10-01T10:28:10.809Z,4
2022-10-01T10:56:34.569Z,4
2022-10-01T11:24:52.027Z,4
2022-10-01T11:53:15.218Z,4
2022-10-01T12:21:41.360Z,4
2022-10-01T12:50:10.392Z,2
2022-10-01T13:18:29.303Z,2
2022-10-01T13:47:24.494Z,1
2022-10-01T14:15:47.097Z,2
2022-10-01T14:44:01.974Z,2
2022-10-01T15:12:23.853Z,2
2022-10-01T15:40:45.376Z,4
2022-10-01T16:09:05.673Z,4
2022-10-01T16:37:25.691Z,4
2022-10-01T17:05:44.632Z,3
2022-10-01T17:34:06.566Z,4
2022-10-01T18:02:41.845Z,3
2022-10-01T18:30:47.607Z,2
2022-10-01T18:59:08.846Z,4
2022-10-01T19:28:06.417Z,4
2022-10-01T19:56:49.916Z,4
2022-10-01T20:25:38.843Z,4
2022-10-01T20:54:25.731Z,4
2022-10-01T21:23:26.594Z,4
2022-10-01T21:52:26.478Z,4
2022-10-01T22:21:21.912Z,4
2022-10-01T22:50:16.147Z,4
2022-10-01T23:19:16.378Z,4
2022-10-01T23:48:04.515Z,4
